createdAt,value
2019-03-06T00:00:35.965Z,23.31
2019-03-06T00:01:35.855Z,23.24
2019-03-06T00:02:35.840Z,23.34
2019-03-06T00:03:35.996Z,23.31
2019-03-06T00:04:36.275Z,23.34
2019-03-06T00:05:35.941Z,23.23
2019-03-06T00:06:36.027Z,23.27
2019-03-06T00:07:36.025Z,23.37
2019-03-06T00:08:35.786Z,23.27
2019-03-06T00:09:35.935Z,23.23
2019-03-06T00:10:35.759Z,23.34
2019-03-06T00:11:35.740Z,23.25
2019-03-06T00:12:35.731Z,23.37
2019-03-06T00:13:35.720Z,23.31
2019-03-06T00:14:35.723Z,23.36
2019-03-06T00:15:43.405Z,23.36
2019-03-06T00:16:35.852Z,23.24
2019-03-06T00:17:35.667Z,23.34
2019-03-06T00:18:35.664Z,23.36
2019-03-06T00:19:35.777Z,23.32
2019-03-06T00:20:35.637Z,23.28
2019-03-06T00:21:35.755Z,23.34
2019-03-06T00:22:35.632Z,23.37
2019-03-06T00:23:35.602Z,23.31
2019-03-06T00:24:35.600Z,23.34
2019-03-06T00:25:35.770Z,23.31
2019-03-06T00:26:35.568Z,23.34
2019-03-06T00:27:36.528Z,23.37
2019-03-06T00:28:35.551Z,23.23
2019-03-06T00:29:35.538Z,23.27
2019-03-06T00:30:35.529Z,23.25
2019-03-06T00:31:35.681Z,23.37
2019-03-06T00:32:35.501Z,23.31
2019-03-06T00:33:35.530Z,23.28
2019-03-06T00:34:35.488Z,23.31
2019-03-06T00:35:35.473Z,23.25
2019-03-06T00:36:35.474Z,23.37
2019-03-06T00:37:35.893Z,23.27
2019-03-06T00:38:35.442Z,23.34
2019-03-06T00:39:35.658Z,23.31
2019-03-06T00:40:35.417Z,23.34
2019-03-06T00:41:35.407Z,23.36
2019-03-06T00:42:35.402Z,23.28
2019-03-06T00:43:35.537Z,23.32
2019-03-06T00:44:35.376Z,23.25
2019-03-06T00:45:35.800Z,23.36
2019-03-06T00:46:35.372Z,23.24
2019-03-06T00:47:35.340Z,23.31
2019-03-06T00:48:35.325Z,23.40
2019-03-06T00:49:36.236Z,23.36
2019-03-06T00:50:35.303Z,23.27
2019-03-06T00:51:35.316Z,23.25
2019-03-06T00:52:35.376Z,23.21
2019-03-06T00:53:35.328Z,23.24
2019-03-06T00:54:35.268Z,23.27
2019-03-06T00:55:35.433Z,23.20
2019-03-06T00:56:35.241Z,23.34
2019-03-06T00:57:35.309Z,23.27
2019-03-06T00:58:35.220Z,23.25
2019-03-06T00:59:35.202Z,23.25
2019-03-06T01:00:43.428Z,23.20
2019-03-06T01:01:35.305Z,23.28
2019-03-06T01:02:35.173Z,23.24
2019-03-06T01:03:35.191Z,23.23
2019-03-06T01:04:35.149Z,23.27
2019-03-06T01:05:35.212Z,23.25
2019-03-06T01:06:35.143Z,23.24
2019-03-06T01:07:35.409Z,23.27
2019-03-06T01:08:35.110Z,23.20
2019-03-06T01:09:35.210Z,23.25
2019-03-06T01:10:42.980Z,23.23
2019-03-06T01:11:35.280Z,23.25
2019-03-06T01:12:35.061Z,23.31
2019-03-06T01:13:35.049Z,23.24
2019-03-06T01:14:35.042Z,23.32
2019-03-06T01:15:35.244Z,23.23
2019-03-06T01:16:35.017Z,23.24
2019-03-06T01:17:35.306Z,23.27
2019-03-06T01:18:34.988Z,23.31
2019-03-06T01:19:34.980Z,23.28
2019-03-06T01:20:35.030Z,23.25
2019-03-06T01:21:35.311Z,23.20
2019-03-06T01:22:43.016Z,23.21
2019-03-06T01:23:35.105Z,23.24
2019-03-06T01:24:34.924Z,23.23
2019-03-06T01:25:34.916Z,23.24
2019-03-06T01:26:34.920Z,23.24
2019-03-06T01:27:35.072Z,23.24
2019-03-06T01:28:34.878Z,23.25
2019-03-06T01:29:34.867Z,23.23
2019-03-06T01:30:35.953Z,23.20
2019-03-06T01:31:34.849Z,23.17
2019-03-06T01:32:34.839Z,23.21
2019-03-06T01:33:35.167Z,23.23
2019-03-06T01:34:34.819Z,23.17
2019-03-06T01:35:34.803Z,23.20
2019-03-06T01:36:34.801Z,23.25
2019-03-06T01:37:34.785Z,23.20
2019-03-06T01:38:34.767Z,23.23
2019-03-06T01:39:35.919Z,23.17
2019-03-06T01:40:34.751Z,23.25
2019-03-06T01:41:34.736Z,23.21
2019-03-06T01:42:34.732Z,23.25
2019-03-06T01:43:34.724Z,23.12
2019-03-06T01:44:34.698Z,23.17
2019-03-06T01:45:36.326Z,23.23
2019-03-06T01:46:43.063Z,23.27
2019-03-06T01:47:34.789Z,23.23
2019-03-06T01:48:34.660Z,23.20
2019-03-06T01:49:34.644Z,23.24
2019-03-06T01:50:34.742Z,23.17
2019-03-06T01:51:34.909Z,23.27
2019-03-06T01:52:34.609Z,23.20
2019-03-06T01:53:35.188Z,23.23
2019-03-06T01:54:34.591Z,23.23
2019-03-06T01:55:34.868Z,23.17
2019-03-06T01:56:34.568Z,23.27
2019-03-06T01:57:34.589Z,23.23
2019-03-06T01:58:34.547Z,23.23
2019-03-06T01:59:42.605Z,23.23
2019-03-06T02:00:34.708Z,23.31
2019-03-06T02:01:34.510Z,23.24
2019-03-06T02:02:34.505Z,23.24
2019-03-06T02:03:34.961Z,23.21
2019-03-06T02:04:34.481Z,23.20
2019-03-06T02:05:34.577Z,23.25
2019-03-06T02:06:34.461Z,23.23
2019-03-06T02:07:34.442Z,23.18
2019-03-06T02:08:34.608Z,23.20
2019-03-06T02:09:34.600Z,23.18
2019-03-06T02:10:34.418Z,23.24
2019-03-06T02:11:34.403Z,23.20
2019-03-06T02:12:34.389Z,23.21
2019-03-06T02:13:34.388Z,23.12
2019-03-06T02:14:34.463Z,23.18
2019-03-06T02:15:34.818Z,23.21
2019-03-06T02:16:34.355Z,23.17
2019-03-06T02:17:34.342Z,23.17
2019-03-06T02:18:34.333Z,23.23
2019-03-06T02:19:34.596Z,23.21
2019-03-06T02:20:34.306Z,23.18
2019-03-06T02:21:34.624Z,23.13
2019-03-06T02:22:34.285Z,23.25
2019-03-06T02:23:34.277Z,23.15
2019-03-06T02:24:34.257Z,23.13
2019-03-06T02:25:34.249Z,23.20
2019-03-06T02:26:34.237Z,23.15
2019-03-06T02:27:34.245Z,23.09
2019-03-06T02:28:34.371Z,23.23
2019-03-06T02:29:34.226Z,23.20
2019-03-06T02:30:34.890Z,23.21
2019-03-06T02:31:34.176Z,23.12
2019-03-06T02:32:34.334Z,23.18
2019-03-06T02:33:34.249Z,23.18
2019-03-06T02:34:34.155Z,23.21
2019-03-06T02:35:34.136Z,23.25
2019-03-06T02:36:34.485Z,23.25
2019-03-06T02:37:34.108Z,23.20
2019-03-06T02:38:34.102Z,23.17
2019-03-06T02:39:34.168Z,23.24
2019-03-06T02:40:34.086Z,23.20
2019-03-06T02:41:34.076Z,23.24
2019-03-06T02:42:34.065Z,23.17
2019-03-06T02:43:34.047Z,23.15
2019-03-06T02:44:34.177Z,23.15
2019-03-06T02:45:34.566Z,23.20
2019-03-06T02:46:41.030Z,23.15
2019-03-06T02:47:34.006Z,23.18
2019-03-06T02:48:34.006Z,23.18
2019-03-06T02:49:33.974Z,23.15
2019-03-06T02:50:33.970Z,23.25
2019-03-06T02:51:34.412Z,23.12
2019-03-06T02:52:33.948Z,23.18
2019-03-06T02:53:33.970Z,23.18
2019-03-06T02:54:33.921Z,23.18
2019-03-06T02:55:33.923Z,23.20
2019-03-06T02:56:34.070Z,23.15
2019-03-06T02:57:33.993Z,23.23
2019-03-06T02:58:33.998Z,23.15
2019-03-06T02:59:33.871Z,23.12
2019-03-06T03:00:33.869Z,23.10
2019-03-06T03:01:33.975Z,23.17
2019-03-06T03:02:33.834Z,23.09
2019-03-06T03:03:34.276Z,23.12
2019-03-06T03:04:33.835Z,23.17
2019-03-06T03:05:33.799Z,23.13
2019-03-06T03:06:33.897Z,23.24
2019-03-06T03:07:33.897Z,23.10
2019-03-06T03:08:33.776Z,23.15
2019-03-06T03:09:33.797Z,23.13
2019-03-06T03:10:33.774Z,23.21
2019-03-06T03:11:34.379Z,23.15
2019-03-06T03:12:33.729Z,23.17
2019-03-06T03:13:33.717Z,23.09
2019-03-06T03:14:33.776Z,23.15
2019-03-06T03:15:33.720Z,23.17
2019-03-06T03:16:33.682Z,23.15
2019-03-06T03:17:33.666Z,23.13
2019-03-06T03:18:34.000Z,23.12
2019-03-06T03:19:33.793Z,23.10
2019-03-06T03:20:33.639Z,23.10
2019-03-06T03:21:33.659Z,23.08
2019-03-06T03:22:33.708Z,23.13
2019-03-06T03:23:33.695Z,23.17
2019-03-06T03:24:33.705Z,23.13
2019-03-06T03:25:33.585Z,23.09
2019-03-06T03:26:33.567Z,23.03
2019-03-06T03:27:34.054Z,23.06
2019-03-06T03:28:33.547Z,23.09
2019-03-06T03:29:33.550Z,23.17
2019-03-06T03:30:33.525Z,23.08
2019-03-06T03:31:33.519Z,23.09
2019-03-06T03:32:33.504Z,23.08
2019-03-06T03:33:33.946Z,23.09
2019-03-06T03:34:33.476Z,23.12
2019-03-06T03:35:33.475Z,23.13
2019-03-06T03:36:33.453Z,23.15
2019-03-06T03:37:33.448Z,23.13
2019-03-06T03:38:33.432Z,23.09
2019-03-06T03:39:33.465Z,23.15
2019-03-06T03:40:33.411Z,23.08
2019-03-06T03:41:33.400Z,23.15
2019-03-06T03:42:33.389Z,23.09
2019-03-06T03:43:33.379Z,23.08
2019-03-06T03:44:33.366Z,23.06
2019-03-06T03:45:33.386Z,23.12
2019-03-06T03:46:33.460Z,23.10
2019-03-06T03:47:33.335Z,23.10
2019-03-06T03:48:33.326Z,23.10
2019-03-06T03:49:33.411Z,23.13
2019-03-06T03:50:33.345Z,23.08
2019-03-06T03:51:36.231Z,23.05
2019-03-06T03:52:41.180Z,23.13
2019-03-06T03:53:33.264Z,23.12
2019-03-06T03:54:33.257Z,23.10
2019-03-06T03:55:33.247Z,23.03
2019-03-06T03:56:33.230Z,23.20
2019-03-06T03:57:33.397Z,23.03
2019-03-06T03:58:33.241Z,23.06
2019-03-06T03:59:33.200Z,23.08
2019-03-06T04:00:33.184Z,23.10
2019-03-06T04:01:33.182Z,23.13
2019-03-06T04:02:33.171Z,23.12
2019-03-06T04:03:33.487Z,23.02
2019-03-06T04:04:33.162Z,23.09
2019-03-06T04:05:33.127Z,23.06
2019-03-06T04:06:33.124Z,23.09
2019-03-06T04:07:33.113Z,23.08
2019-03-06T04:08:33.095Z,23.06
2019-03-06T04:09:33.757Z,23.08
2019-03-06T04:10:33.076Z,23.03
2019-03-06T04:11:33.126Z,23.06
2019-03-06T04:12:34.230Z,23.00
2019-03-06T04:13:33.040Z,23.05
2019-03-06T04:14:33.114Z,22.99
2019-03-06T04:15:33.043Z,23.03
2019-03-06T04:16:33.021Z,23.05
2019-03-06T04:17:33.122Z,23.09
2019-03-06T04:18:32.999Z,23.05
2019-03-06T04:19:41.225Z,23.05
2019-03-06T04:20:40.319Z,23.05
2019-03-06T04:21:33.084Z,23.03
2019-03-06T04:22:32.937Z,23.02
2019-03-06T04:23:33.002Z,23.09
2019-03-06T04:24:33.079Z,23.09
2019-03-06T04:25:33.036Z,23.08
2019-03-06T04:26:32.929Z,23.09
2019-03-06T04:27:33.746Z,22.99
2019-03-06T04:28:32.869Z,23.08
2019-03-06T04:29:32.865Z,22.99
2019-03-06T04:30:32.921Z,23.03
2019-03-06T04:31:32.849Z,23.08
2019-03-06T04:32:33.185Z,23.08
2019-03-06T04:33:32.968Z,23.05
2019-03-06T04:34:32.821Z,22.98
2019-03-06T04:35:32.801Z,23.05
2019-03-06T04:36:32.790Z,23.06
2019-03-06T04:37:32.779Z,23.05
2019-03-06T04:38:33.027Z,23.02
2019-03-06T04:39:32.883Z,23.05
2019-03-06T04:40:32.745Z,23.03
2019-03-06T04:41:32.731Z,23.03
2019-03-06T04:42:32.816Z,22.96
2019-03-06T04:43:32.788Z,23.03
2019-03-06T04:44:33.049Z,23.00
2019-03-06T04:45:32.687Z,23.08
2019-03-06T04:46:33.115Z,23.09
2019-03-06T04:47:32.667Z,22.99
2019-03-06T04:48:32.651Z,22.99
2019-03-06T04:49:32.649Z,23.06
2019-03-06T04:50:33.044Z,23.03
2019-03-06T04:51:32.622Z,23.08
2019-03-06T04:52:32.616Z,23.02
2019-03-06T04:53:32.595Z,23.06
2019-03-06T04:54:40.322Z,23.09
2019-03-06T04:55:32.725Z,22.99
2019-03-06T04:56:32.597Z,23.06
2019-03-06T04:57:32.563Z,22.99
2019-03-06T04:58:32.544Z,22.96
2019-03-06T04:59:32.636Z,23.00
2019-03-06T05:00:32.524Z,22.99
2019-03-06T05:01:33.503Z,23.09
2019-03-06T05:02:32.527Z,23.02
2019-03-06T05:03:32.662Z,23.03
2019-03-06T05:04:32.475Z,23.03
2019-03-06T05:05:32.465Z,23.02
2019-03-06T05:06:40.853Z,23.00
2019-03-06T05:07:32.567Z,22.96
2019-03-06T05:08:32.459Z,23.02
2019-03-06T05:09:32.427Z,23.08
2019-03-06T05:10:32.507Z,23.08
2019-03-06T05:11:40.398Z,22.98
2019-03-06T05:12:32.454Z,23.00
2019-03-06T05:13:32.372Z,23.03
2019-03-06T05:14:32.552Z,23.00
2019-03-06T05:15:32.464Z,23.02
2019-03-06T05:16:32.345Z,22.96
2019-03-06T05:17:32.326Z,22.98
2019-03-06T05:18:32.325Z,22.94
2019-03-06T05:19:32.312Z,23.08
2019-03-06T05:20:32.320Z,23.06
2019-03-06T05:21:32.421Z,23.03
2019-03-06T05:22:32.276Z,23.05
2019-03-06T05:23:32.282Z,23.05
2019-03-06T05:24:32.259Z,23.05
2019-03-06T05:25:32.244Z,23.02
2019-03-06T05:26:32.276Z,22.98
2019-03-06T05:27:32.221Z,23.03
2019-03-06T05:28:32.205Z,23.03
2019-03-06T05:29:32.205Z,23.05
2019-03-06T05:30:32.188Z,23.03
2019-03-06T05:31:32.171Z,23.00
2019-03-06T05:32:32.590Z,22.99
2019-03-06T05:33:32.150Z,22.94
2019-03-06T05:34:32.144Z,22.99
2019-03-06T05:35:32.259Z,22.98
2019-03-06T05:36:32.120Z,23.02
2019-03-06T05:37:32.116Z,23.05
2019-03-06T05:38:32.859Z,22.96
2019-03-06T05:39:32.086Z,22.98
2019-03-06T05:40:32.070Z,23.03
2019-03-06T05:41:32.274Z,22.99
2019-03-06T05:42:32.047Z,22.93
2019-03-06T05:43:39.475Z,23.03
2019-03-06T05:44:32.129Z,23.03
2019-03-06T05:45:32.021Z,22.98
2019-03-06T05:46:32.007Z,23.09
2019-03-06T05:47:32.002Z,23.08
2019-03-06T05:48:32.047Z,23.00
2019-03-06T05:49:32.255Z,23.05
2019-03-06T05:50:32.383Z,22.98
2019-03-06T05:51:31.947Z,23.05
2019-03-06T05:52:32.079Z,23.06
2019-03-06T05:53:31.928Z,23.08
2019-03-06T05:54:31.925Z,22.98
2019-03-06T05:55:32.090Z,23.00
2019-03-06T05:56:31.891Z,23.06
2019-03-06T05:57:31.886Z,23.09
2019-03-06T05:58:32.107Z,23.00
2019-03-06T05:59:31.861Z,23.05
2019-03-06T06:00:31.856Z,23.02
2019-03-06T06:01:32.381Z,23.06
2019-03-06T06:02:31.829Z,22.96
2019-03-06T06:03:31.825Z,23.05
2019-03-06T06:04:31.809Z,23.02
2019-03-06T06:05:31.794Z,23.05
2019-03-06T06:06:31.779Z,23.09
2019-03-06T06:07:32.209Z,23.02
2019-03-06T06:08:31.761Z,23.03
2019-03-06T06:09:31.749Z,23.03
2019-03-06T06:10:40.630Z,23.08
2019-03-06T06:11:39.526Z,22.98
2019-03-06T06:12:31.718Z,22.98
2019-03-06T06:13:31.731Z,23.00
2019-03-06T06:14:31.697Z,22.98
2019-03-06T06:15:31.680Z,23.05
2019-03-06T06:16:31.670Z,22.96
2019-03-06T06:17:31.685Z,23.05
2019-03-06T06:18:32.036Z,23.08
2019-03-06T06:19:32.090Z,23.03
2019-03-06T06:20:31.808Z,23.06
2019-03-06T06:21:31.719Z,23.06
2019-03-06T06:22:31.604Z,23.02
2019-03-06T06:23:32.140Z,23.00
2019-03-06T06:24:31.599Z,23.10
2019-03-06T06:25:32.178Z,23.08
2019-03-06T06:26:31.557Z,23.00
2019-03-06T06:27:33.191Z,23.06
2019-03-06T06:28:31.533Z,23.09
2019-03-06T06:29:31.666Z,23.05
2019-03-06T06:30:31.994Z,23.08
2019-03-06T06:31:33.590Z,23.05
2019-03-06T06:32:32.965Z,23.06
2019-03-06T06:33:31.523Z,23.09
2019-03-06T06:34:31.978Z,23.06
2019-03-06T06:35:32.220Z,23.08
2019-03-06T06:36:31.446Z,23.13
2019-03-06T06:37:31.509Z,23.12
2019-03-06T06:38:31.422Z,23.03
2019-03-06T06:39:32.125Z,23.09
2019-03-06T06:40:31.413Z,23.06
2019-03-06T06:41:31.429Z,23.13
2019-03-06T06:42:31.378Z,23.03
2019-03-06T06:43:34.083Z,23.12
2019-03-06T06:44:32.185Z,23.13
2019-03-06T06:45:31.586Z,23.12
2019-03-06T06:46:34.690Z,23.09
2019-03-06T06:47:32.656Z,23.10
2019-03-06T06:48:32.447Z,23.08
2019-03-06T06:49:33.872Z,23.15
2019-03-06T06:50:31.285Z,23.13
2019-03-06T06:51:32.037Z,23.05
2019-03-06T06:52:31.266Z,23.05
2019-03-06T06:53:31.260Z,23.06
2019-03-06T06:54:31.247Z,23.08
2019-03-06T06:55:33.271Z,23.03
2019-03-06T06:56:36.192Z,23.00
2019-03-06T06:57:33.427Z,22.94
2019-03-06T06:58:31.715Z,22.94
2019-03-06T06:59:31.598Z,22.90
2019-03-06T07:00:32.474Z,22.94
2019-03-06T07:01:34.638Z,23.03
2019-03-06T07:02:31.418Z,23.02
2019-03-06T07:03:31.425Z,23.09
2019-03-06T07:04:31.274Z,23.03
2019-03-06T07:05:33.938Z,23.03
2019-03-06T07:06:33.962Z,23.06
2019-03-06T07:07:32.516Z,23.06
2019-03-06T07:08:31.197Z,23.05
2019-03-06T07:09:31.082Z,23.13
2019-03-06T07:10:31.061Z,23.13
2019-03-06T07:11:31.052Z,23.05
2019-03-06T07:12:31.539Z,23.15
2019-03-06T07:13:31.252Z,23.12
2019-03-06T07:14:31.018Z,23.10
2019-03-06T07:15:31.347Z,23.17
2019-03-06T07:16:31.023Z,23.10
2019-03-06T07:17:30.983Z,23.17
2019-03-06T07:18:31.138Z,23.21
2019-03-06T07:19:31.760Z,23.23
2019-03-06T07:20:30.947Z,23.13
2019-03-06T07:21:31.078Z,23.18
2019-03-06T07:22:30.927Z,23.31
2019-03-06T07:23:30.911Z,23.25
2019-03-06T07:24:30.902Z,23.15
2019-03-06T07:25:32.991Z,23.21
2019-03-06T07:26:31.774Z,23.21
2019-03-06T07:27:30.989Z,23.18
2019-03-06T07:28:30.857Z,23.21
2019-03-06T07:29:30.849Z,23.24
2019-03-06T07:30:30.838Z,23.17
2019-03-06T07:31:31.704Z,23.12
2019-03-06T07:32:31.290Z,23.18
2019-03-06T07:33:30.819Z,23.13
2019-03-06T07:34:30.796Z,23.13
2019-03-06T07:35:30.847Z,23.13
2019-03-06T07:36:30.778Z,23.17
2019-03-06T07:37:30.845Z,23.13
2019-03-06T07:38:31.104Z,23.20
2019-03-06T07:39:32.156Z,23.17
2019-03-06T07:40:30.754Z,23.17
2019-03-06T07:41:30.720Z,23.18
2019-03-06T07:42:30.879Z,23.21
2019-03-06T07:43:30.729Z,23.20
2019-03-06T07:44:30.805Z,23.13
2019-03-06T07:45:30.916Z,23.18
2019-03-06T07:46:34.539Z,23.13
2019-03-06T07:47:31.330Z,23.13
2019-03-06T07:48:31.184Z,23.13
2019-03-06T07:49:30.662Z,23.17
2019-03-06T07:50:30.609Z,23.18
2019-03-06T07:51:32.464Z,23.15
2019-03-06T07:52:31.147Z,23.08
2019-03-06T07:53:30.586Z,23.10
2019-03-06T07:54:30.570Z,23.13
2019-03-06T07:55:30.708Z,23.10
2019-03-06T07:56:30.544Z,23.13
2019-03-06T07:57:30.537Z,23.17
2019-03-06T07:58:30.522Z,23.21
2019-03-06T07:59:30.920Z,23.17
2019-03-06T08:00:30.501Z,23.20
2019-03-06T08:01:30.548Z,23.12
2019-03-06T08:02:31.379Z,23.20
2019-03-06T08:03:30.860Z,23.17
2019-03-06T08:04:30.830Z,23.12
2019-03-06T08:05:30.452Z,23.21
2019-03-06T08:06:30.454Z,23.20
2019-03-06T08:07:31.040Z,23.09
2019-03-06T08:08:30.424Z,23.12
2019-03-06T08:09:30.411Z,23.20
2019-03-06T08:10:31.101Z,23.18
2019-03-06T08:11:30.384Z,23.10
2019-03-06T08:12:30.378Z,23.18
2019-03-06T08:13:30.420Z,23.20
2019-03-06T08:14:30.342Z,23.12
2019-03-06T08:15:31.154Z,23.21
2019-03-06T08:16:30.322Z,23.18
2019-03-06T08:17:33.023Z,23.21
2019-03-06T08:18:30.397Z,23.21
2019-03-06T08:19:30.409Z,23.18
2019-03-06T08:20:31.526Z,23.13
2019-03-06T08:21:30.272Z,23.13
2019-03-06T08:22:30.381Z,23.23
2019-03-06T08:23:30.358Z,23.21
2019-03-06T08:24:30.786Z,23.18
2019-03-06T08:25:30.254Z,23.18
2019-03-06T08:26:30.243Z,23.18
2019-03-06T08:27:30.246Z,23.20
2019-03-06T08:28:30.188Z,23.23
2019-03-06T08:29:30.307Z,23.18
2019-03-06T08:30:30.168Z,23.10
2019-03-06T08:31:33.909Z,23.12
2019-03-06T08:32:30.282Z,23.17
2019-03-06T08:33:30.190Z,23.09
2019-03-06T08:34:30.555Z,23.15
2019-03-06T08:35:30.226Z,23.09
2019-03-06T08:36:30.315Z,23.12
2019-03-06T08:37:30.465Z,23.13
2019-03-06T08:38:30.079Z,23.17
2019-03-06T08:39:31.958Z,23.08
2019-03-06T08:40:30.703Z,23.08
2019-03-06T08:41:30.902Z,23.10
2019-03-06T08:42:32.500Z,23.20
2019-03-06T08:43:31.831Z,23.12
2019-03-06T08:44:30.396Z,23.06
2019-03-06T08:45:30.016Z,23.12
2019-03-06T08:46:30.373Z,23.20
2019-03-06T08:47:29.984Z,23.20
2019-03-06T08:48:29.977Z,23.21
2019-03-06T08:49:29.987Z,23.17
2019-03-06T08:50:29.993Z,23.25
2019-03-06T08:51:29.931Z,23.27
2019-03-06T08:52:29.923Z,23.28
2019-03-06T08:53:29.967Z,23.20
2019-03-06T08:54:31.882Z,23.12
2019-03-06T08:55:29.922Z,23.20
2019-03-06T08:56:31.661Z,23.13
2019-03-06T08:57:34.035Z,23.12
2019-03-06T08:58:30.852Z,23.20
2019-03-06T08:59:30.112Z,23.20
2019-03-06T09:00:30.621Z,23.12
2019-03-06T09:01:31.479Z,23.15
2019-03-06T09:02:33.190Z,23.17
2019-03-06T09:03:29.810Z,23.17
2019-03-06T09:04:30.859Z,23.10
2019-03-06T09:05:31.112Z,23.24
2019-03-06T09:06:29.768Z,23.23
2019-03-06T09:07:30.537Z,23.18
2019-03-06T09:08:30.548Z,23.24
2019-03-06T09:09:29.736Z,23.17
2019-03-06T09:10:29.725Z,23.09
2019-03-06T09:11:29.712Z,23.24
2019-03-06T09:12:31.636Z,23.21
2019-03-06T09:13:29.819Z,23.21
2019-03-06T09:14:29.935Z,23.31
2019-03-06T09:15:30.011Z,23.20
2019-03-06T09:16:29.653Z,23.21
2019-03-06T09:17:29.642Z,23.20
2019-03-06T09:18:29.631Z,23.27
2019-03-06T09:19:29.882Z,23.37
2019-03-06T09:20:37.290Z,23.27
2019-03-06T09:21:30.820Z,23.28
2019-03-06T09:22:29.588Z,23.24
2019-03-06T09:23:29.690Z,23.20
2019-03-06T09:24:29.684Z,23.25
2019-03-06T09:25:29.646Z,23.27
2019-03-06T09:26:29.811Z,23.40
2019-03-06T09:27:29.803Z,23.32
2019-03-06T09:28:31.667Z,23.34
2019-03-06T09:29:30.294Z,23.39
2019-03-06T09:30:29.944Z,23.28
2019-03-06T09:31:29.648Z,23.27
2019-03-06T09:32:29.707Z,23.20
2019-03-06T09:33:29.877Z,23.27
2019-03-06T09:34:29.466Z,23.23
2019-03-06T09:35:29.446Z,23.32
2019-03-06T09:36:29.976Z,23.28
2019-03-06T09:37:30.669Z,23.27
2019-03-06T09:38:29.419Z,23.25
2019-03-06T09:39:29.395Z,23.21
2019-03-06T09:40:29.649Z,23.23
2019-03-06T09:41:29.491Z,23.24
2019-03-06T09:42:30.329Z,23.20
2019-03-06T09:43:29.388Z,23.32
2019-03-06T09:44:30.236Z,23.21
2019-03-06T09:45:29.327Z,23.32
2019-03-06T09:46:29.320Z,23.36
2019-03-06T09:47:29.308Z,23.27
2019-03-06T09:48:29.298Z,23.25
2019-03-06T09:49:29.749Z,23.24
2019-03-06T09:50:29.509Z,23.32
2019-03-06T09:51:29.848Z,23.34
2019-03-06T09:52:29.348Z,23.31
2019-03-06T09:53:30.270Z,23.32
2019-03-06T09:54:29.227Z,23.31
2019-03-06T09:55:29.313Z,23.31
2019-03-06T09:56:29.210Z,23.23
2019-03-06T09:57:29.340Z,23.20
2019-03-06T09:58:29.252Z,23.25
2019-03-06T09:59:29.354Z,23.15
2019-03-06T10:00:29.163Z,23.21
2019-03-06T10:01:29.648Z,23.20
2019-03-06T10:02:29.420Z,23.21
2019-03-06T10:03:31.025Z,23.21
2019-03-06T10:04:29.462Z,23.15
2019-03-06T10:05:29.106Z,23.18
2019-03-06T10:06:29.092Z,23.15
2019-03-06T10:08:04.365Z,23.24
2019-03-06T10:08:30.119Z,23.20
2019-03-06T10:09:29.070Z,23.20
2019-03-06T10:10:29.057Z,23.27
2019-03-06T10:11:29.178Z,23.13
2019-03-06T10:12:29.064Z,23.17
2019-03-06T10:13:30.049Z,23.23
2019-03-06T10:14:29.355Z,23.20
2019-03-06T10:15:28.994Z,23.21
2019-03-06T10:16:28.986Z,23.13
2019-03-06T10:17:30.197Z,23.21
2019-03-06T10:18:31.686Z,23.20
2019-03-06T10:19:29.645Z,23.20
2019-03-06T10:20:29.651Z,23.31
2019-03-06T10:21:28.930Z,23.21
2019-03-06T10:22:28.916Z,23.31
2019-03-06T10:23:28.920Z,23.28
2019-03-06T10:24:28.946Z,23.23
2019-03-06T10:25:30.360Z,23.39
2019-03-06T10:26:29.004Z,23.24
2019-03-06T10:27:28.984Z,23.24
2019-03-06T10:28:28.859Z,23.28
2019-03-06T10:29:28.841Z,23.27
2019-03-06T10:30:28.844Z,23.20
2019-03-06T10:31:28.848Z,23.18
2019-03-06T10:32:28.809Z,23.18
2019-03-06T10:33:28.799Z,23.12
2019-03-06T10:34:29.034Z,23.12
2019-03-06T10:35:28.776Z,23.10
2019-03-06T10:36:30.957Z,23.12
2019-03-06T10:37:32.086Z,23.06
2019-03-06T10:38:28.745Z,23.05
2019-03-06T10:39:28.741Z,22.99
2019-03-06T10:40:28.822Z,23.08
2019-03-06T10:41:29.773Z,23.08
2019-03-06T10:42:35.563Z,23.03
2019-03-06T10:43:48.890Z,23.08
2019-03-06T10:44:30.071Z,23.00
2019-03-06T10:45:28.659Z,23.08
2019-03-06T10:46:28.653Z,23.05
2019-03-06T10:47:29.446Z,23.00
2019-03-06T10:48:30.679Z,23.00
2019-03-06T10:49:29.710Z,23.00
2019-03-06T10:50:29.918Z,23.06
2019-03-06T10:51:30.970Z,22.93
2019-03-06T10:52:29.522Z,22.91
2019-03-06T10:53:29.128Z,23.05
2019-03-06T10:54:28.558Z,23.03
2019-03-06T10:55:28.986Z,23.00
2019-03-06T10:56:28.928Z,23.03
2019-03-06T10:57:28.529Z,23.00
2019-03-06T10:58:28.523Z,23.08
2019-03-06T10:59:28.508Z,23.02
2019-03-06T11:00:28.516Z,23.00
2019-03-06T11:01:32.778Z,23.06
2019-03-06T11:02:28.474Z,23.08
2019-03-06T11:03:28.460Z,23.06
2019-03-06T11:04:28.478Z,23.05
2019-03-06T11:05:28.618Z,23.05
2019-03-06T11:06:28.505Z,23.10
2019-03-06T11:07:28.951Z,23.06
2019-03-06T11:08:28.903Z,23.06
2019-03-06T11:09:28.519Z,23.08
2019-03-06T11:10:28.856Z,23.13
2019-03-06T11:11:29.401Z,23.10
2019-03-06T11:12:29.151Z,23.17
2019-03-06T11:13:31.940Z,23.06
2019-03-06T11:14:28.341Z,23.05
2019-03-06T11:15:28.487Z,23.06
2019-03-06T11:16:28.343Z,23.15
2019-03-06T11:17:29.772Z,23.15
2019-03-06T11:18:28.430Z,23.17
2019-03-06T11:19:30.670Z,23.13
2019-03-06T11:20:28.277Z,23.12
2019-03-06T11:21:28.348Z,23.13
2019-03-06T11:22:28.247Z,23.12
2019-03-06T11:23:29.014Z,23.10
2019-03-06T11:24:29.229Z,23.13
2019-03-06T11:25:28.267Z,23.15
2019-03-06T11:26:28.204Z,23.25
2019-03-06T11:27:28.189Z,23.18
2019-03-06T11:28:28.184Z,23.17
2019-03-06T11:29:29.927Z,23.20
2019-03-06T11:30:28.234Z,23.20
2019-03-06T11:31:28.876Z,23.21
2019-03-06T11:32:28.931Z,23.13
2019-03-06T11:33:29.488Z,23.17
2019-03-06T11:34:28.917Z,23.10
2019-03-06T11:35:28.419Z,23.13
2019-03-06T11:36:28.334Z,23.09
2019-03-06T11:37:29.534Z,23.03
2019-03-06T11:38:29.209Z,23.06
2019-03-06T11:39:28.950Z,23.05
2019-03-06T11:40:28.045Z,23.06
2019-03-06T11:41:28.107Z,23.06
2019-03-06T11:42:28.689Z,23.15
2019-03-06T11:43:28.188Z,23.20
2019-03-06T11:44:28.959Z,23.15
2019-03-06T11:45:27.989Z,23.12
2019-03-06T11:46:28.003Z,23.13
2019-03-06T11:47:27.978Z,23.21
2019-03-06T11:48:27.961Z,23.20
2019-03-06T11:49:28.330Z,23.17
2019-03-06T11:50:27.944Z,23.17
2019-03-06T11:51:27.929Z,23.27
2019-03-06T11:52:28.506Z,23.21
2019-03-06T11:53:28.511Z,23.21
2019-03-06T11:54:27.895Z,23.23
2019-03-06T11:55:31.298Z,23.23
2019-03-06T11:56:27.882Z,23.24
2019-03-06T11:57:28.586Z,23.25
2019-03-06T11:58:27.855Z,23.25
2019-03-06T11:59:28.701Z,23.20
2019-03-06T12:00:29.800Z,23.27
2019-03-06T12:01:34.022Z,23.27
2019-03-06T12:02:30.620Z,23.24
2019-03-06T12:03:29.823Z,23.23
2019-03-06T12:04:28.792Z,23.28
2019-03-06T12:05:28.040Z,23.31
2019-03-06T12:06:27.756Z,23.34
2019-03-06T12:07:27.784Z,23.20
2019-03-06T12:08:27.923Z,23.34
2019-03-06T12:09:28.276Z,23.37
2019-03-06T12:10:27.708Z,23.25
2019-03-06T12:11:27.935Z,23.32
2019-03-06T12:12:27.695Z,23.37
2019-03-06T12:13:27.867Z,23.25
2019-03-06T12:14:27.665Z,23.32
2019-03-06T12:15:27.659Z,23.36
2019-03-06T12:16:27.647Z,23.36
2019-03-06T12:17:27.775Z,23.31
2019-03-06T12:18:27.741Z,23.31
2019-03-06T12:19:28.018Z,23.36
2019-03-06T12:20:27.596Z,23.27
2019-03-06T12:21:31.889Z,23.34
2019-03-06T12:22:27.975Z,23.31
2019-03-06T12:23:27.573Z,23.32
2019-03-06T12:24:27.613Z,23.37
2019-03-06T12:25:29.624Z,23.24
2019-03-06T12:26:28.309Z,23.31
2019-03-06T12:27:28.429Z,23.31
2019-03-06T12:28:32.588Z,23.37
2019-03-06T12:29:28.655Z,23.39
2019-03-06T12:30:27.496Z,23.34
2019-03-06T12:31:31.184Z,23.27
2019-03-06T12:32:27.465Z,23.31
2019-03-06T12:33:28.310Z,23.31
2019-03-06T12:34:27.544Z,23.31
2019-03-06T12:35:27.429Z,23.32
2019-03-06T12:36:27.423Z,23.31
2019-03-06T12:37:27.693Z,23.28
2019-03-06T12:38:27.399Z,23.31
2019-03-06T12:39:27.382Z,23.32
2019-03-06T12:40:27.805Z,23.25
2019-03-06T12:41:27.973Z,23.23
2019-03-06T12:42:28.797Z,23.25
2019-03-06T12:43:37.366Z,23.23
2019-03-06T12:44:28.330Z,23.24
2019-03-06T12:45:27.425Z,23.27
2019-03-06T12:46:28.250Z,23.25
2019-03-06T12:47:27.296Z,23.27
2019-03-06T12:48:27.400Z,23.31
2019-03-06T12:49:34.511Z,23.27
2019-03-06T12:50:27.274Z,23.27
2019-03-06T12:51:27.405Z,23.32
2019-03-06T12:52:27.242Z,23.24